createdAt,value
2019-03-30T00:00:18.166Z,26.90
2019-03-30T00:01:18.102Z,25.50
2019-03-30T00:02:18.185Z,26.10
2019-03-30T00:03:18.110Z,26.80
2019-03-30T00:04:18.116Z,24.90
2019-03-30T00:05:18.057Z,25.40
2019-03-30T00:06:18.112Z,25.20
2019-03-30T00:07:18.025Z,23.90
2019-03-30T00:08:18.160Z,24.80
2019-03-30T00:09:18.018Z,25.60
2019-03-30T00:10:18.031Z,28.00
2019-03-30T00:11:17.984Z,26.90
2019-03-30T00:13:19.035Z,26.90
2019-03-30T00:14:19.015Z,25.50
2019-03-30T00:15:17.946Z,26.30
2019-03-30T00:17:18.967Z,26.30
2019-03-30T00:19:18.974Z,26.00
2019-03-30T00:20:17.999Z,27.50
2019-03-30T00:21:17.870Z,30.20
2019-03-30T00:22:19.963Z,29.00
2019-03-30T00:23:17.852Z,30.30
2019-03-30T00:24:25.732Z,32.10
2019-03-30T00:25:17.830Z,31.70
2019-03-30T00:27:18.861Z,29.50
2019-03-30T00:29:17.809Z,28.80
2019-03-30T00:30:19.265Z,26.70
2019-03-30T00:31:17.782Z,27.10
2019-03-30T00:32:17.874Z,27.10
2019-03-30T00:33:17.735Z,29.70
2019-03-30T00:34:17.820Z,27.50
2019-03-30T00:35:17.724Z,29.30
2019-03-30T00:36:17.800Z,28.80
2019-03-30T00:37:17.695Z,27.00
2019-03-30T00:38:17.724Z,27.60
2019-03-30T00:39:17.707Z,28.10
2019-03-30T00:40:17.756Z,27.90
2019-03-30T00:41:17.708Z,26.70
2019-03-30T00:42:17.749Z,25.60
2019-03-30T00:43:17.642Z,29.20
2019-03-30T00:44:17.659Z,26.50
2019-03-30T00:45:17.657Z,26.30
2019-03-30T00:46:17.766Z,27.60
2019-03-30T00:47:17.585Z,27.80
2019-03-30T00:49:18.613Z,27.50
2019-03-30T00:50:20.799Z,28.00
2019-03-30T00:51:17.553Z,26.90
2019-03-30T00:52:19.563Z,26.90
2019-03-30T00:53:17.525Z,26.40
2019-03-30T00:54:17.633Z,27.30
2019-03-30T00:55:17.532Z,26.80
2019-03-30T00:57:17.486Z,26.80
2019-03-30T00:58:19.513Z,27.30
2019-03-30T00:59:17.459Z,25.40
2019-03-30T01:00:18.514Z,26.20
2019-03-30T01:01:17.432Z,27.40
2019-03-30T01:02:17.476Z,26.90
2019-03-30T01:03:17.421Z,26.00
2019-03-30T01:05:17.423Z,28.30
2019-03-30T01:07:18.414Z,27.10
2019-03-30T01:09:18.393Z,29.00
2019-03-30T01:10:18.479Z,31.00
2019-03-30T01:11:17.328Z,35.20
2019-03-30T01:12:17.438Z,32.00
2019-03-30T01:13:17.304Z,33.20
2019-03-30T01:14:17.356Z,32.90
2019-03-30T01:15:17.283Z,32.90
2019-03-30T01:16:18.459Z,35.80
2019-03-30T01:17:17.262Z,33.80
2019-03-30T01:18:17.304Z,36.30
2019-03-30T01:19:17.231Z,33.60
2019-03-30T01:20:17.292Z,33.40
2019-03-30T01:21:17.217Z,35.50
2019-03-30T01:22:17.336Z,31.10
2019-03-30T01:23:17.231Z,32.00
2019-03-30T01:24:17.219Z,31.30
2019-03-30T01:25:17.175Z,30.30
2019-03-30T01:26:17.231Z,31.10
2019-03-30T01:27:17.174Z,31.30
2019-03-30T01:28:17.244Z,30.50
2019-03-30T01:29:17.145Z,30.00
2019-03-30T01:30:23.100Z,30.80
2019-03-30T01:31:18.104Z,32.00
2019-03-30T01:32:17.194Z,29.30
2019-03-30T01:33:17.087Z,31.50
2019-03-30T01:34:17.189Z,29.50
2019-03-30T01:35:17.122Z,31.10
2019-03-30T01:36:17.105Z,29.50
2019-03-30T01:37:17.158Z,30.40
2019-03-30T01:38:17.116Z,29.20
2019-03-30T01:39:17.028Z,30.60
2019-03-30T01:40:17.134Z,30.60
2019-03-30T01:41:17.005Z,31.50
2019-03-30T01:42:17.061Z,30.90
2019-03-30T01:43:16.978Z,32.40
2019-03-30T01:44:17.062Z,27.80
2019-03-30T01:45:16.955Z,29.60
2019-03-30T01:46:17.081Z,28.60
2019-03-30T01:47:16.970Z,29.60
2019-03-30T01:48:16.976Z,33.30
2019-03-30T01:49:16.916Z,29.30
2019-03-30T01:50:18.104Z,29.80
2019-03-30T01:51:16.927Z,30.40
2019-03-30T01:52:17.039Z,29.50
2019-03-30T01:53:16.880Z,30.30
2019-03-30T01:54:16.925Z,31.50
2019-03-30T01:55:16.873Z,31.50
2019-03-30T01:56:16.938Z,30.30
2019-03-30T01:57:16.876Z,30.20
2019-03-30T01:58:16.957Z,31.90
2019-03-30T01:59:16.837Z,30.50
2019-03-30T02:00:16.853Z,31.50
2019-03-30T02:01:16.795Z,31.70
2019-03-30T02:02:16.896Z,31.40
2019-03-30T02:03:16.785Z,31.70
2019-03-30T02:04:16.772Z,31.30
2019-03-30T02:05:16.735Z,30.50
2019-03-30T02:06:16.817Z,33.60
2019-03-30T02:07:16.723Z,32.30
2019-03-30T02:08:16.844Z,35.60
2019-03-30T02:09:16.697Z,37.70
2019-03-30T02:10:16.732Z,63.50
2019-03-30T02:11:16.693Z,104.00
2019-03-30T02:12:16.738Z,150.10
2019-03-30T02:13:16.680Z,81.90
2019-03-30T02:14:16.744Z,62.50
2019-03-30T02:15:16.634Z,55.70
2019-03-30T02:16:16.654Z,53.10
2019-03-30T02:17:16.603Z,48.40
2019-03-30T02:18:17.733Z,41.60
2019-03-30T02:19:16.584Z,44.60
2019-03-30T02:20:30.186Z,41.10
2019-03-30T02:21:17.591Z,38.80
2019-03-30T02:22:16.598Z,34.00
2019-03-30T02:23:16.588Z,32.20
2019-03-30T02:24:16.616Z,32.90
2019-03-30T02:25:16.522Z,31.70
2019-03-30T02:26:16.621Z,31.90
2019-03-30T02:27:16.513Z,28.60
2019-03-30T02:28:16.580Z,30.40
2019-03-30T02:29:16.473Z,30.00
2019-03-30T02:30:16.549Z,31.40
2019-03-30T02:31:16.461Z,30.60
2019-03-30T02:32:16.591Z,32.90
2019-03-30T02:33:16.510Z,31.20
2019-03-30T02:34:16.481Z,30.70
2019-03-30T02:35:16.419Z,32.20
2019-03-30T02:36:16.487Z,32.90
2019-03-30T02:37:16.391Z,31.60
2019-03-30T02:38:16.509Z,29.30
2019-03-30T02:39:16.392Z,30.40
2019-03-30T02:40:16.409Z,33.80
2019-03-30T02:41:16.348Z,35.70
2019-03-30T02:42:16.428Z,34.50
2019-03-30T02:43:16.389Z,33.30
2019-03-30T02:44:16.391Z,33.90
2019-03-30T02:45:16.297Z,34.00
2019-03-30T02:46:16.370Z,33.80
2019-03-30T02:47:16.292Z,35.70
2019-03-30T02:49:17.343Z,35.10
2019-03-30T02:50:16.293Z,36.00
2019-03-30T02:51:16.241Z,35.70
2019-03-30T02:52:16.294Z,33.40
2019-03-30T02:53:16.218Z,35.00
2019-03-30T02:54:16.336Z,34.00
2019-03-30T02:55:16.190Z,35.80
2019-03-30T02:56:16.224Z,36.80
2019-03-30T02:57:16.169Z,37.20
2019-03-30T02:58:16.246Z,38.00
2019-03-30T02:59:16.145Z,35.50
2019-03-30T03:00:16.275Z,33.50
2019-03-30T03:01:16.124Z,33.60
2019-03-30T03:02:16.161Z,33.30
2019-03-30T03:03:16.102Z,33.10
2019-03-30T03:04:16.200Z,34.20
2019-03-30T03:05:16.113Z,38.80
2019-03-30T03:06:16.187Z,37.60
2019-03-30T03:07:16.069Z,35.70
2019-03-30T03:08:16.099Z,36.30
2019-03-30T03:09:16.092Z,36.40
2019-03-30T03:10:16.160Z,38.20
2019-03-30T03:11:16.024Z,37.50
2019-03-30T03:12:16.124Z,39.80
2019-03-30T03:13:15.992Z,42.00
2019-03-30T03:14:16.037Z,39.50
2019-03-30T03:15:16.022Z,39.00
2019-03-30T03:16:16.067Z,38.10
2019-03-30T03:17:15.952Z,38.40
2019-03-30T03:18:16.062Z,37.40
2019-03-30T03:19:15.926Z,37.30
2019-03-30T03:20:16.009Z,39.60
2019-03-30T03:21:15.909Z,36.10
2019-03-30T03:22:15.996Z,37.20
2019-03-30T03:23:15.886Z,38.90
2019-03-30T03:24:16.007Z,37.00
2019-03-30T03:25:15.908Z,37.60
2019-03-30T03:26:15.915Z,38.30
2019-03-30T03:27:15.837Z,35.90
2019-03-30T03:28:15.937Z,34.90
2019-03-30T03:29:15.821Z,36.90
2019-03-30T03:30:15.887Z,36.50
2019-03-30T03:31:15.817Z,36.20
2019-03-30T03:32:15.919Z,37.30
2019-03-30T03:33:15.806Z,36.90
2019-03-30T03:34:15.877Z,37.40
2019-03-30T03:35:15.793Z,32.90
2019-03-30T03:36:15.779Z,38.00
2019-03-30T03:37:15.734Z,33.90
2019-03-30T03:38:15.799Z,36.80
2019-03-30T03:39:15.717Z,34.40
2019-03-30T03:40:15.867Z,34.50
2019-03-30T03:41:15.690Z,32.50
2019-03-30T03:42:15.728Z,32.40
2019-03-30T03:43:15.672Z,32.50
2019-03-30T03:44:15.732Z,33.70
2019-03-30T03:45:15.673Z,32.80
2019-03-30T03:46:15.792Z,33.40
2019-03-30T03:47:15.617Z,35.00
2019-03-30T03:48:15.661Z,36.50
2019-03-30T03:49:15.598Z,33.50
2019-03-30T03:50:15.676Z,30.50
2019-03-30T03:51:25.773Z,31.50
2019-03-30T03:52:16.572Z,30.80
2019-03-30T03:53:15.720Z,30.10
2019-03-30T03:54:15.570Z,32.30
2019-03-30T03:55:15.632Z,31.90
2019-03-30T03:56:15.578Z,29.60
2019-03-30T03:57:15.620Z,30.90
2019-03-30T03:58:15.573Z,33.40
2019-03-30T03:59:15.540Z,30.40
2019-03-30T04:00:15.506Z,30.60
2019-03-30T04:01:15.575Z,31.80
2019-03-30T04:02:15.464Z,30.80
2019-03-30T04:03:15.572Z,32.80
2019-03-30T04:04:15.454Z,30.70
2019-03-30T04:05:15.506Z,35.40
2019-03-30T04:06:15.447Z,32.20
2019-03-30T04:07:15.496Z,32.40
2019-03-30T04:08:15.415Z,29.40
2019-03-30T04:09:15.497Z,31.70
2019-03-30T04:10:15.375Z,31.20
2019-03-30T04:11:15.545Z,30.70
2019-03-30T04:12:15.353Z,29.30
2019-03-30T04:13:15.453Z,31.20
2019-03-30T04:14:15.343Z,30.80
2019-03-30T04:15:15.457Z,30.00
2019-03-30T04:16:15.337Z,29.70
2019-03-30T04:17:15.570Z,29.90
2019-03-30T04:18:15.302Z,28.50
2019-03-30T04:19:15.395Z,27.50
2019-03-30T04:20:15.258Z,28.30
2019-03-30T04:21:15.380Z,31.70
2019-03-30T04:22:15.274Z,28.60
2019-03-30T04:23:15.306Z,28.50
2019-03-30T04:24:15.234Z,29.90
2019-03-30T04:25:15.308Z,28.90
2019-03-30T04:26:15.261Z,29.80
2019-03-30T04:27:16.267Z,25.80
2019-03-30T04:28:15.181Z,28.00
2019-03-30T04:29:15.237Z,27.10
2019-03-30T04:30:15.145Z,28.70
2019-03-30T04:31:15.244Z,28.20
2019-03-30T04:32:15.158Z,24.90
2019-03-30T04:33:15.158Z,27.70
2019-03-30T04:34:15.103Z,28.20
2019-03-30T04:35:15.171Z,27.70
2019-03-30T04:36:15.103Z,26.70
2019-03-30T04:37:15.210Z,29.20
2019-03-30T04:38:15.082Z,29.70
2019-03-30T04:39:15.105Z,27.40
2019-03-30T04:40:15.040Z,30.20
2019-03-30T04:41:15.126Z,30.10
2019-03-30T04:42:15.046Z,27.30
2019-03-30T04:43:15.209Z,27.70
2019-03-30T04:44:15.009Z,27.40
2019-03-30T04:45:15.047Z,26.20
2019-03-30T04:46:14.997Z,26.30
2019-03-30T04:47:15.077Z,25.30
2019-03-30T04:48:14.958Z,25.30
2019-03-30T04:49:15.079Z,26.20
2019-03-30T04:50:14.932Z,27.00
2019-03-30T04:51:14.979Z,27.40
2019-03-30T04:52:14.931Z,25.70
2019-03-30T04:53:14.989Z,27.80
2019-03-30T04:54:14.901Z,27.20
2019-03-30T04:55:15.040Z,26.90
2019-03-30T04:56:14.946Z,30.00
2019-03-30T04:57:14.940Z,27.20
2019-03-30T04:58:14.857Z,28.10
2019-03-30T04:59:14.938Z,25.80
2019-03-30T05:00:14.847Z,26.00
2019-03-30T05:01:14.889Z,26.50
2019-03-30T05:02:14.798Z,26.00
2019-03-30T05:03:14.911Z,26.30
2019-03-30T05:04:14.782Z,28.00
2019-03-30T05:05:14.873Z,25.40
2019-03-30T05:06:14.779Z,25.10
2019-03-30T05:07:14.775Z,25.40
2019-03-30T05:08:14.769Z,23.50
2019-03-30T05:09:14.834Z,22.70
2019-03-30T05:10:14.721Z,25.40
2019-03-30T05:11:14.817Z,26.80
2019-03-30T05:12:14.694Z,28.90
2019-03-30T05:13:14.762Z,27.10
2019-03-30T05:14:14.679Z,27.50
2019-03-30T05:15:14.764Z,27.50
2019-03-30T05:16:14.683Z,28.60
2019-03-30T05:17:14.735Z,27.00
2019-03-30T05:18:14.659Z,29.50
2019-03-30T05:19:14.693Z,26.80
2019-03-30T05:20:14.604Z,29.60
2019-03-30T05:21:14.662Z,30.30
2019-03-30T05:22:16.602Z,30.30
2019-03-30T05:23:14.716Z,28.60
2019-03-30T05:24:14.566Z,29.00
2019-03-30T05:25:14.592Z,28.90
2019-03-30T05:26:14.531Z,25.60
2019-03-30T05:27:14.617Z,23.50
2019-03-30T05:28:14.548Z,22.70
2019-03-30T05:29:14.629Z,27.90
2019-03-30T05:30:14.506Z,27.40
2019-03-30T05:31:14.535Z,26.90
2019-03-30T05:32:14.470Z,29.30
2019-03-30T05:33:14.575Z,29.60
2019-03-30T05:34:14.444Z,26.00
2019-03-30T05:35:14.561Z,29.40
2019-03-30T05:36:14.432Z,26.10
2019-03-30T05:37:14.473Z,27.00
2019-03-30T05:38:14.408Z,28.30
2019-03-30T05:39:14.547Z,27.30
2019-03-30T05:40:14.378Z,26.80
2019-03-30T05:41:14.402Z,24.20
2019-03-30T05:42:14.351Z,26.40
2019-03-30T05:43:14.442Z,25.20
2019-03-30T05:44:14.394Z,25.10
2019-03-30T05:45:14.445Z,26.00
2019-03-30T05:46:14.322Z,28.20
2019-03-30T05:47:14.382Z,24.40
2019-03-30T05:48:14.294Z,25.60
2019-03-30T05:49:14.415Z,23.70
2019-03-30T05:50:14.274Z,24.30
2019-03-30T05:51:14.367Z,24.50
2019-03-30T05:52:25.900Z,25.10
2019-03-30T05:53:15.246Z,25.60
2019-03-30T05:54:14.307Z,24.10
2019-03-30T05:55:14.217Z,22.20
2019-03-30T05:56:14.295Z,24.50
2019-03-30T05:57:14.196Z,24.70
2019-03-30T05:58:14.215Z,25.40
2019-03-30T05:59:14.212Z,24.90
2019-03-30T06:00:14.222Z,26.30
2019-03-30T06:01:14.156Z,24.70
2019-03-30T06:02:14.235Z,26.70
2019-03-30T06:03:14.145Z,25.20
2019-03-30T06:04:14.197Z,25.50
2019-03-30T06:05:15.333Z,26.60
2019-03-30T06:06:14.155Z,26.40
2019-03-30T06:07:14.079Z,26.00
2019-03-30T06:08:14.076Z,23.90
2019-03-30T06:09:14.078Z,25.40
2019-03-30T06:10:14.134Z,24.70
2019-03-30T06:11:14.053Z,22.90
2019-03-30T06:12:14.137Z,24.00
2019-03-30T06:13:14.034Z,23.10
2019-03-30T06:14:14.140Z,22.90
2019-03-30T06:15:14.040Z,22.60
2019-03-30T06:16:14.096Z,23.70
2019-03-30T06:17:13.987Z,22.20
2019-03-30T06:18:14.036Z,23.90
2019-03-30T06:19:13.972Z,22.70
2019-03-30T06:20:14.093Z,22.00
2019-03-30T06:21:13.957Z,21.50
2019-03-30T06:22:13.976Z,21.80
2019-03-30T06:23:13.901Z,22.40
2019-03-30T06:24:13.974Z,23.40
2019-03-30T06:25:13.973Z,22.90
2019-03-30T06:26:14.015Z,21.50
2019-03-30T06:27:13.898Z,21.60
2019-03-30T06:28:13.900Z,22.90
2019-03-30T06:29:14.362Z,22.10
2019-03-30T06:30:13.951Z,22.90
2019-03-30T06:31:13.827Z,22.10
2019-03-30T06:32:13.834Z,22.00
2019-03-30T06:33:13.801Z,21.30
2019-03-30T06:34:13.847Z,22.40
2019-03-30T06:35:13.800Z,22.40
2019-03-30T06:36:13.989Z,22.20
2019-03-30T06:37:13.771Z,23.50
2019-03-30T06:38:13.775Z,22.30
2019-03-30T06:39:13.739Z,21.50
2019-03-30T06:40:13.802Z,22.20
2019-03-30T06:41:13.732Z,21.20
2019-03-30T06:42:13.797Z,20.50
2019-03-30T06:43:13.690Z,20.70
2019-03-30T06:44:14.840Z,22.00
2019-03-30T06:45:13.679Z,21.70
2019-03-30T06:46:13.815Z,21.30
2019-03-30T06:47:13.655Z,20.90
2019-03-30T06:48:13.739Z,18.80
2019-03-30T06:49:13.635Z,19.20
2019-03-30T06:50:13.660Z,19.30
2019-03-30T06:51:13.965Z,19.00
2019-03-30T06:52:13.671Z,18.60
2019-03-30T06:53:13.575Z,19.30
2019-03-30T06:54:14.880Z,18.00
2019-03-30T06:55:13.570Z,18.10
2019-03-30T06:56:13.616Z,19.80
2019-03-30T06:57:13.545Z,18.20
2019-03-30T06:58:13.658Z,18.30
2019-03-30T06:59:13.531Z,17.50
2019-03-30T07:00:13.625Z,17.60
2019-03-30T07:01:13.513Z,17.40
2019-03-30T07:02:13.526Z,17.40
2019-03-30T07:03:13.465Z,16.60
2019-03-30T07:04:13.545Z,16.50
2019-03-30T07:05:13.476Z,17.70
2019-03-30T07:06:13.586Z,17.30
2019-03-30T07:07:13.459Z,16.70
2019-03-30T07:08:13.490Z,16.50
2019-03-30T07:09:13.438Z,17.40
2019-03-30T07:10:13.487Z,16.20
2019-03-30T07:11:21.165Z,16.60
2019-03-30T07:12:14.396Z,15.90
2019-03-30T07:13:13.850Z,15.40
2019-03-30T07:14:13.342Z,16.60
2019-03-30T07:15:13.413Z,16.20
2019-03-30T07:16:13.323Z,15.30
2019-03-30T07:17:13.473Z,16.00
2019-03-30T07:18:13.320Z,16.40
2019-03-30T07:19:13.350Z,16.10
2019-03-30T07:20:13.286Z,16.40
2019-03-30T07:21:13.358Z,16.60
2019-03-30T07:22:13.332Z,15.60
2019-03-30T07:24:14.295Z,15.80
2019-03-30T07:25:13.276Z,15.80
2019-03-30T07:26:13.222Z,14.10
2019-03-30T07:27:13.324Z,14.30
2019-03-30T07:28:13.193Z,15.40
2019-03-30T07:29:13.426Z,15.10
2019-03-30T07:30:13.167Z,14.80
2019-03-30T07:31:13.419Z,15.20
2019-03-30T07:32:13.183Z,15.50
2019-03-30T07:33:13.460Z,14.90
2019-03-30T07:34:13.134Z,14.80
2019-03-30T07:35:13.250Z,14.90
2019-03-30T07:36:13.106Z,14.10
2019-03-30T07:37:13.290Z,14.60
2019-03-30T07:38:13.080Z,15.00
2019-03-30T07:39:13.196Z,14.80
2019-03-30T07:40:13.066Z,14.60
2019-03-30T07:41:13.300Z,15.00
2019-03-30T07:42:13.047Z,15.40
2019-03-30T07:43:13.434Z,15.00
2019-03-30T07:44:13.033Z,15.20
2019-03-30T07:45:13.313Z,14.20
2019-03-30T07:46:13.020Z,15.00
2019-03-30T07:47:13.440Z,15.30
2019-03-30T07:48:12.996Z,14.40
2019-03-30T07:50:14.012Z,15.10
2019-03-30T07:52:13.992Z,14.70
2019-03-30T07:53:25.738Z,15.30
2019-03-30T07:54:14.094Z,15.20
2019-03-30T07:55:13.596Z,15.40
2019-03-30T07:56:12.879Z,15.00
2019-03-30T07:57:17.144Z,15.20
2019-03-30T07:58:12.901Z,15.10
2019-03-30T07:59:12.944Z,15.30
2019-03-30T08:00:12.849Z,15.40
2019-03-30T08:02:13.861Z,16.20
2019-03-30T08:04:13.919Z,14.80
2019-03-30T08:06:13.828Z,15.10
2019-03-30T08:08:13.810Z,14.90
2019-03-30T08:09:14.133Z,14.30
2019-03-30T08:10:12.720Z,15.50
2019-03-30T08:12:13.782Z,15.30
2019-03-30T08:14:13.780Z,15.40
2019-03-30T08:16:13.655Z,14.70
2019-03-30T08:17:14.557Z,14.40
2019-03-30T08:18:12.657Z,14.50
2019-03-30T08:19:14.400Z,13.70
2019-03-30T08:20:12.627Z,15.00
2019-03-30T08:23:13.637Z,15.70
2019-03-30T08:24:14.750Z,14.70
2019-03-30T08:25:12.569Z,14.60
2019-03-30T08:26:14.725Z,14.30
2019-03-30T08:27:12.536Z,13.70
2019-03-30T08:28:14.951Z,14.10
2019-03-30T08:29:12.523Z,14.00
2019-03-30T08:30:14.677Z,14.20
2019-03-30T08:31:12.517Z,14.50
2019-03-30T08:32:14.874Z,14.10
2019-03-30T08:33:12.491Z,14.60
2019-03-30T08:34:14.915Z,14.50
2019-03-30T08:35:12.480Z,14.20
2019-03-30T08:36:15.015Z,15.30
2019-03-30T08:37:12.451Z,14.50
2019-03-30T08:38:15.142Z,15.10
2019-03-30T08:39:12.416Z,14.90
2019-03-30T08:40:15.172Z,14.90
2019-03-30T08:41:12.413Z,15.10
2019-03-30T08:43:13.435Z,14.80
2019-03-30T08:45:13.419Z,14.90
2019-03-30T08:47:13.378Z,14.10
2019-03-30T08:49:13.364Z,13.50
2019-03-30T08:51:13.352Z,13.70
2019-03-30T08:53:13.320Z,13.90
2019-03-30T08:55:13.320Z,13.50
2019-03-30T08:57:14.141Z,13.60
2019-03-30T08:59:13.239Z,13.50
2019-03-30T09:00:16.203Z,14.20
2019-03-30T09:01:12.157Z,13.30
2019-03-30T09:02:15.904Z,13.80
2019-03-30T09:03:12.146Z,14.20
2019-03-30T09:04:15.812Z,13.80
2019-03-30T09:05:12.136Z,13.90
2019-03-30T09:06:15.938Z,14.20
2019-03-30T09:07:12.107Z,13.60
2019-03-30T09:09:12.081Z,14.10
2019-03-30T09:10:13.349Z,14.20
2019-03-30T09:11:12.074Z,13.60
2019-03-30T09:14:13.082Z,14.20
2019-03-30T09:16:12.023Z,14.30
2019-03-30T09:18:13.105Z,13.90
2019-03-30T09:19:14.101Z,14.60
2019-03-30T09:20:11.976Z,14.00
2019-03-30T09:21:14.148Z,13.60
2019-03-30T09:22:11.959Z,13.70
2019-03-30T09:23:14.104Z,13.90
2019-03-30T09:24:11.910Z,14.30
2019-03-30T09:25:12.392Z,13.90
2019-03-30T09:26:11.918Z,13.50
2019-03-30T09:27:11.990Z,14.00
2019-03-30T09:28:11.862Z,14.60
2019-03-30T09:29:11.891Z,13.90
2019-03-30T09:30:11.845Z,14.20
2019-03-30T09:31:12.056Z,15.10
2019-03-30T09:32:14.659Z,14.10
2019-03-30T09:33:11.926Z,13.90
2019-03-30T09:34:11.789Z,14.10
2019-03-30T09:35:11.832Z,14.20
2019-03-30T09:36:11.764Z,14.90
2019-03-30T09:37:11.975Z,13.80
2019-03-30T09:38:14.666Z,13.80
2019-03-30T09:39:11.871Z,13.80
2019-03-30T09:40:11.731Z,14.00
2019-03-30T09:41:11.801Z,14.00
2019-03-30T09:42:11.727Z,14.40
2019-03-30T09:43:11.789Z,15.10
2019-03-30T09:44:11.690Z,14.70
2019-03-30T09:45:11.800Z,15.30
2019-03-30T09:46:11.662Z,14.20
2019-03-30T09:47:11.744Z,14.20
2019-03-30T09:48:11.644Z,14.60
2019-03-30T09:49:11.760Z,14.60
2019-03-30T09:50:11.638Z,14.90
2019-03-30T09:51:11.650Z,13.80
2019-03-30T09:52:11.629Z,14.10
2019-03-30T09:53:11.756Z,14.20
2019-03-30T09:54:23.167Z,14.40
2019-03-30T09:55:12.562Z,15.30
2019-03-30T09:56:11.674Z,14.70
2019-03-30T09:57:11.571Z,15.20
2019-03-30T09:58:11.582Z,14.80
2019-03-30T09:59:11.537Z,15.00
2019-03-30T10:00:11.601Z,15.10
2019-03-30T10:01:11.504Z,14.90
2019-03-30T10:02:11.532Z,15.20
2019-03-30T10:03:11.479Z,14.80
2019-03-30T10:04:11.517Z,15.40
2019-03-30T10:05:11.449Z,15.00
2019-03-30T10:06:11.555Z,14.90
2019-03-30T10:07:11.468Z,14.80
2019-03-30T10:08:11.470Z,15.20
2019-03-30T10:09:11.411Z,14.40
2019-03-30T10:11:12.465Z,14.00
2019-03-30T10:12:11.478Z,14.30
2019-03-30T10:13:11.409Z,14.60
2019-03-30T10:14:11.390Z,14.60
2019-03-30T10:15:11.342Z,14.00
2019-03-30T10:16:11.397Z,14.50
2019-03-30T10:17:11.333Z,14.00
2019-03-30T10:18:11.452Z,15.40
2019-03-30T10:19:11.307Z,13.70
2019-03-30T10:20:11.329Z,14.40
2019-03-30T10:21:11.282Z,14.20
2019-03-30T10:22:11.338Z,14.30
2019-03-30T10:23:11.280Z,13.70
2019-03-30T10:24:11.355Z,13.70
2019-03-30T10:25:11.248Z,13.40
2019-03-30T10:26:11.266Z,14.10
2019-03-30T10:27:11.214Z,14.00
2019-03-30T10:28:11.339Z,13.90
2019-03-30T10:29:11.182Z,13.40
2019-03-30T10:30:11.291Z,13.70
2019-03-30T10:31:11.170Z,14.30
2019-03-30T10:32:11.214Z,14.50
2019-03-30T10:33:11.164Z,13.40
2019-03-30T10:34:11.220Z,13.70
2019-03-30T10:35:11.121Z,13.90
2019-03-30T10:36:11.239Z,13.80
2019-03-30T10:37:11.114Z,14.00
2019-03-30T10:38:11.174Z,13.30
2019-03-30T10:39:11.082Z,13.20
2019-03-30T10:40:11.158Z,14.30
2019-03-30T10:41:11.050Z,13.60
2019-03-30T10:42:11.073Z,13.80
2019-03-30T10:43:11.036Z,13.70
2019-03-30T10:44:11.133Z,14.50
2019-03-30T10:45:11.005Z,13.70
2019-03-30T10:46:11.102Z,13.90
2019-03-30T10:47:10.995Z,13.70
2019-03-30T10:48:11.036Z,13.30
2019-03-30T10:49:10.982Z,12.90
2019-03-30T10:50:11.023Z,11.50
2019-03-30T10:51:10.945Z,11.80
2019-03-30T10:52:11.040Z,10.60
2019-03-30T10:53:10.921Z,11.20
2019-03-30T10:54:10.975Z,11.40
2019-03-30T10:55:10.895Z,11.50
2019-03-30T10:56:10.959Z,11.00
2019-03-30T10:57:10.894Z,10.70
2019-03-30T10:58:10.977Z,11.30
2019-03-30T10:59:10.882Z,10.60
2019-03-30T11:01:11.880Z,10.60
2019-03-30T11:02:10.831Z,10.90
2019-03-30T11:03:10.810Z,11.20
2019-03-30T11:04:10.844Z,10.70
2019-03-30T11:05:10.806Z,9.70
2019-03-30T11:06:10.783Z,9.30
2019-03-30T11:07:10.770Z,10.40
2019-03-30T11:08:10.842Z,10.20
2019-03-30T11:09:10.765Z,9.80
2019-03-30T11:10:10.861Z,10.40
2019-03-30T11:11:10.727Z,10.20
2019-03-30T11:12:10.762Z,10.10
2019-03-30T11:13:10.705Z,9.40
2019-03-30T11:14:10.814Z,9.50
2019-03-30T11:15:10.676Z,9.60
2019-03-30T11:16:10.719Z,9.90
2019-03-30T11:17:10.659Z,9.40
2019-03-30T11:18:10.705Z,9.30
2019-03-30T11:19:10.627Z,9.60
2019-03-30T11:20:10.717Z,10.40
2019-03-30T11:21:10.633Z,9.20
2019-03-30T11:22:10.624Z,9.30
2019-03-30T11:23:10.607Z,10.00
2019-03-30T11:24:10.671Z,9.80
2019-03-30T11:25:10.594Z,9.20
2019-03-30T11:26:10.653Z,9.30
2019-03-30T11:27:10.545Z,9.40
2019-03-30T11:28:10.570Z,9.20
2019-03-30T11:29:10.520Z,10.10
2019-03-30T11:30:10.625Z,9.70
2019-03-30T11:31:10.513Z,9.70
2019-03-30T11:32:10.710Z,10.50
2019-03-30T11:33:10.899Z,10.10
2019-03-30T11:34:10.504Z,10.60
2019-03-30T11:35:10.483Z,10.00
2019-03-30T11:36:10.554Z,10.80
2019-03-30T11:37:10.443Z,10.20
2019-03-30T11:38:10.534Z,10.30
2019-03-30T11:39:10.409Z,10.50
2019-03-30T11:40:10.474Z,10.50
2019-03-30T11:41:10.407Z,9.60
2019-03-30T11:42:10.462Z,9.70
2019-03-30T11:43:10.360Z,10.90
2019-03-30T11:44:10.483Z,9.80
2019-03-30T11:45:10.370Z,9.40
2019-03-30T11:46:10.413Z,9.30
2019-03-30T11:47:10.320Z,8.60
2019-03-30T11:48:10.406Z,8.40
2019-03-30T11:49:10.316Z,8.80
2019-03-30T11:50:10.336Z,8.70
2019-03-30T11:51:10.312Z,9.20
2019-03-30T11:52:10.333Z,9.00
2019-03-30T11:53:10.259Z,8.90
2019-03-30T11:54:10.353Z,9.40
2019-03-30T11:55:20.940Z,10.50
2019-03-30T11:56:11.261Z,10.40
2019-03-30T11:57:10.257Z,9.00
2019-03-30T11:58:10.194Z,8.80
2019-03-30T12:00:11.226Z,8.60
2019-03-30T12:01:10.319Z,9.10
2019-03-30T12:02:10.153Z,8.80
2019-03-30T12:03:10.205Z,9.30
2019-03-30T12:04:10.125Z,9.60
2019-03-30T12:05:10.211Z,9.50
2019-03-30T12:06:10.137Z,9.70
2019-03-30T12:07:10.124Z,9.40
2019-03-30T12:08:10.084Z,9.90
2019-03-30T12:09:10.137Z,9.30
2019-03-30T12:10:10.064Z,9.30
2019-03-30T12:11:10.179Z,9.60
2019-03-30T12:12:10.059Z,10.40
2019-03-30T12:13:10.064Z,9.60
2019-03-30T12:14:10.040Z,9.90
2019-03-30T12:15:10.105Z,9.90
2019-03-30T12:16:10.025Z,9.80
2019-03-30T12:17:10.093Z,9.80
2019-03-30T12:18:09.989Z,10.50
2019-03-30T12:19:10.024Z,10.70
2019-03-30T12:20:09.972Z,10.20
2019-03-30T12:21:10.045Z,9.80
2019-03-30T12:22:09.990Z,10.10
2019-03-30T12:23:10.037Z,10.00
2019-03-30T12:24:09.917Z,10.70
2019-03-30T12:25:09.967Z,10.70
2019-03-30T12:26:09.928Z,10.10
2019-03-30T12:27:09.954Z,10.10
2019-03-30T12:28:09.876Z,10.10
2019-03-30T12:29:09.967Z,10.60
2019-03-30T12:30:09.896Z,10.00
2019-03-30T12:31:09.882Z,10.60
2019-03-30T12:32:09.844Z,10.50
2019-03-30T12:33:09.941Z,10.40
2019-03-30T12:34:12.982Z,9.90
2019-03-30T12:35:09.906Z,10.10
2019-03-30T12:36:09.790Z,9.60
2019-03-30T12:37:09.820Z,9.60
2019-03-30T12:38:09.779Z,9.70
2019-03-30T12:39:09.843Z,11.00
2019-03-30T12:40:09.744Z,10.90
2019-03-30T12:41:09.848Z,11.00
2019-03-30T12:42:09.747Z,11.10
2019-03-30T12:43:09.765Z,10.80
2019-03-30T12:44:09.692Z,11.30
2019-03-30T12:45:09.787Z,11.90
2019-03-30T12:46:09.676Z,11.40
2019-03-30T12:47:10.475Z,11.00
2019-03-30T12:48:09.647Z,10.60
2019-03-30T12:49:09.713Z,10.40
2019-03-30T12:50:09.633Z,11.20
2019-03-30T12:51:09.728Z,12.20
2019-03-30T12:52:09.608Z,11.50
2019-03-30T12:53:09.652Z,11.40
2019-03-30T12:54:09.776Z,10.10
2019-03-30T12:55:09.634Z,9.80
2019-03-30T12:56:09.555Z,10.20
2019-03-30T12:57:09.652Z,9.40
2019-03-30T12:58:09.557Z,9.70
2019-03-30T13:00:10.574Z,9.90
2019-03-30T13:01:09.577Z,10.70
2019-03-30T13:02:09.487Z,10.10
2019-03-30T13:03:09.621Z,9.80
2019-03-30T13:04:09.484Z,10.60
2019-03-30T13:05:09.512Z,10.20
2019-03-30T13:06:10.324Z,9.80
2019-03-30T13:07:09.517Z,9.90
2019-03-30T13:08:09.558Z,10.40
2019-03-30T13:09:09.531Z,9.70
2019-03-30T13:10:09.428Z,10.50
2019-03-30T13:11:09.459Z,10.40
2019-03-30T13:12:09.385Z,9.60
2019-03-30T13:13:09.404Z,9.50
2019-03-30T13:14:09.364Z,10.00
2019-03-30T13:15:09.487Z,10.70
2019-03-30T13:16:09.353Z,10.00
2019-03-30T13:17:09.382Z,10.60
2019-03-30T13:18:09.352Z,12.10
2019-03-30T13:19:09.424Z,10.50
2019-03-30T13:20:09.299Z,10.00
2019-03-30T13:21:09.418Z,10.70
2019-03-30T13:22:09.287Z,10.60
2019-03-30T13:23:09.351Z,10.70
2019-03-30T13:24:09.270Z,10.50
2019-03-30T13:25:09.336Z,10.60
2019-03-30T13:26:09.232Z,10.60
2019-03-30T13:27:09.248Z,10.60
2019-03-30T13:28:09.253Z,10.70
2019-03-30T13:29:09.260Z,10.80
2019-03-30T13:30:09.194Z,10.30
2019-03-30T13:31:09.274Z,11.10
2019-03-30T13:32:09.169Z,10.10
2019-03-30T13:33:09.227Z,10.80
2019-03-30T13:34:09.200Z,10.20
2019-03-30T13:35:09.209Z,9.80